Time;durP1;ratioP1;P1;durP2;ratioP2;P2;SDS_P1;SDS_P2;PMS_P1;PMS_P2;Temp;Humidity;BMP_temperature;BMP_pressure;BME280_temperature;BME280_humidity;BME280_pressure;Samples;Min_cycle;Max_cycle;Signal;HPM_P1;HPM_P2
2022/12/15 00:39:05;;;;;;;31.50;19.03;;;-5.60;87.60;;;;;;4994633;28;20710;-89
2022/12/15 00:41:31;;;;;;;28.50;18.33;;;-5.60;87.80;;;;;;4994392;28;20170;-91
2022/12/15 00:43:56;;;;;;;26.67;18.30;;;-5.50;87.90;;;;;;4993227;28;20280;-90
2022/12/15 00:50:50;;;;;;;24.53;16.10;;;-5.60;87.90;;;;;;4994932;28;20635;-90
2022/12/15 01:21:56;;;;;;;22.23;13.40;;;-5.90;89.30;;;;;;4994365;28;20165;-89
2022/12/15 01:24:22;;;;;;;26.23;15.60;;;-5.80;89.20;;;;;;4993040;28;20217;-89
2022/12/15 01:26:47;;;;;;;25.70;17.00;;;-5.80;89.20;;;;;;4993719;28;20187;-90
2022/12/15 01:29:13;;;;;;;26.60;17.03;;;-5.70;89.30;;;;;;4992517;28;20644;-90
2022/12/15 01:31:38;;;;;;;33.47;19.17;;;-5.50;89.20;;;;;;4992373;28;20174;-90
2022/12/15 01:34:04;;;;;;;23.17;15.57;;;-5.40;89.00;;;;;;5008344;28;20200;-90
2022/12/15 01:36:30;;;;;;;32.60;19.37;;;-5.30;88.90;;;;;;4992504;28;20182;-90
2022/12/15 01:38:55;;;;;;;31.27;19.77;;;-5.30;88.80;;;;;;5008767;28;20202;-89
2022/12/15 01:41:21;;;;;;;20.30;12.53;;;-5.30;88.80;;;;;;4993613;28;20174;-90
2022/12/15 01:43:47;;;;;;;31.30;19.43;;;-5.10;88.80;;;;;;4993540;28;20194;-89
2022/12/15 01:46:14;;;;;;;28.20;19.07;;;-5.10;88.80;;;;;;4993857;28;20551;-90
2022/12/15 01:48:58;;;;;;;28.70;18.53;;;-4.90;89.00;;;;;;4992351;28;20174;-90
2022/12/15 01:51:38;;;;;;;28.47;16.07;;;-4.80;88.90;;;;;;5008686;28;20181;-90
2022/12/15 01:54:08;;;;;;;31.33;18.63;;;-4.70;88.80;;;;;;4993475;28;20312;-90
2022/12/15 01:56:38;;;;;;;36.43;20.03;;;-4.60;88.70;;;;;;4993787;28;20162;-90
2022/12/15 01:59:07;;;;;;;35.23;18.87;;;-4.60;88.60;;;;;;4992321;28;20210;-90
2022/12/15 02:01:33;;;;;;;25.50;17.80;;;-4.70;88.40;;;;;;4992132;28;20564;-90
2022/12/15 02:03:59;;;;;;;28.57;15.97;;;-4.70;88.30;;;;;;4992235;28;20198;-90
2022/12/15 02:06:25;;;;;;;18.80;12.83;;;-4.70;88.30;;;;;;4992246;28;20178;-90
2022/12/15 02:08:53;;;;;;;31.30;17.50;;;-4.70;88.30;;;;;;4992206;28;20182;-90
2022/12/15 02:11:22;;;;;;;19.93;13.13;;;-4.70;88.30;;;;;;4992105;28;20205;-90
2022/12/15 02:14:03;;;;;;;26.00;14.97;;;-4.70;88.10;;;;;;5008300;28;20201;-90
2022/12/15 02:16:57;;;;;;;37.27;17.90;;;-4.80;88.10;;;;;;4992113;28;20564;-90
2022/12/15 02:19:32;;;;;;;28.17;15.80;;;-4.80;88.10;;;;;;4957613;28;20263;-90
2022/12/15 02:22:20;;;;;;;24.63;16.03;;;-5.00;88.10;;;;;;4992124;28;20596;-89
2022/12/15 02:25:03;;;;;;;16.33;10.80;;;-5.20;88.20;;;;;;4963551;28;20222;-90
2022/12/15 02:27:47;;;;;;;24.60;14.30;;;-5.30;88.40;;;;;;4992016;28;20687;-89
2022/12/15 02:30:19;;;;;;;22.67;14.53;;;-5.30;88.60;;;;;;5008352;28;20531;-90
2022/12/15 02:33:07;;;;;;;28.17;16.57;;;-5.30;88.60;;;;;;5008248;28;20202;-90
2022/12/15 02:35:47;;;;;;;23.20;15.10;;;-5.20;88.50;;;;;;5008377;28;20175;-90
2022/12/15 02:38:13;;;;;;;33.03;18.77;;;-5.20;88.60;;;;;;5008297;28;20205;-90
2022/12/15 02:40:39;;;;;;;21.43;11.43;;;-5.20;88.60;;;;;;5008219;28;20175;-90
2022/12/15 02:43:07;;;;;;;33.77;16.67;;;-5.20;88.60;;;;;;4991798;28;20189;-90
2022/12/15 02:45:51;;;;;;;26.70;17.10;;;-5.20;88.70;;;;;;4994151;28;20610;-90
2022/12/15 02:48:32;;;;;;;29.13;17.83;;;-5.20;88.70;;;;;;4995332;28;20165;-90
2022/12/15 02:51:20;;;;;;;38.77;21.27;;;-5.20;88.80;;;;;;5011661;28;20178;-90
2022/12/15 02:54:13;;;;;;;38.07;20.03;;;-5.10;88.70;;;;;;4995243;28;20202;-90
2022/12/15 02:57:02;;;;;;;37.13;19.40;;;-5.20;88.60;;;;;;4995564;28;20276;-90
2022/12/15 03:00:03;;;;;;;30.33;18.77;;;-5.20;88.70;;;;;;4996340;28;20162;-90
2022/12/15 03:02:33;;;;;;;32.67;19.77;;;-5.20;88.80;;;;;;4939456;29;20176;-90
2022/12/15 03:04:59;;;;;;;34.43;20.53;;;-5.10;88.70;;;;;;5001305;28;20197;-90
2022/12/15 03:07:26;;;;;;;34.07;19.13;;;-5.20;88.60;;;;;;4996145;28;20718;-90
2022/12/15 03:09:57;;;;;;;36.70;20.23;;;-5.20;88.50;;;;;;4994877;28;20174;-90
2022/12/15 03:12:23;;;;;;;35.57;19.83;;;-5.30;88.50;;;;;;4994888;28;20178;-90
2022/12/15 03:14:49;;;;;;;35.23;20.50;;;-5.40;88.50;;;;;;4996051;28;20551;-90
2022/12/15 03:17:14;;;;;;;34.90;21.07;;;-5.50;88.50;;;;;;4994653;28;20691;-90
2022/12/15 03:19:40;;;;;;;36.27;20.50;;;-5.50;88.70;;;;;;4995997;28;20198;-90
2022/12/15 03:22:06;;;;;;;35.47;17.90;;;-5.40;88.70;;;;;;4994910;28;20224;-91
2022/12/15 03:24:31;;;;;;;31.33;19.93;;;-5.40;88.90;;;;;;4996652;28;20217;-90
2022/12/15 03:26:57;;;;;;;30.73;18.80;;;-5.30;89.00;;;;;;4995834;28;20252;-90
2022/12/15 03:29:22;;;;;;;26.53;15.50;;;-5.40;89.00;;;;;;4994559;28;20189;-90
2022/12/15 03:31:48;;;;;;;28.20;18.20;;;-5.40;89.00;;;;;;4994764;28;20208;-90
2022/12/15 03:34:13;;;;;;;33.20;20.83;;;-5.30;89.10;;;;;;4994445;28;20202;-90
2022/12/15 03:36:39;;;;;;;34.47;20.17;;;-5.40;89.10;;;;;;4994446;28;20768;-90
2022/12/15 03:39:05;;;;;;;33.07;20.43;;;-5.40;89.10;;;;;;4994452;28;20292;-90
2022/12/15 03:41:30;;;;;;;35.20;20.17;;;-5.40;89.10;;;;;;4995540;28;20603;-90
2022/12/15 03:43:56;;;;;;;31.33;19.40;;;-5.50;89.10;;;;;;4994223;28;20198;-90
2022/12/15 03:46:21;;;;;;;32.83;19.60;;;-5.50;89.20;;;;;;4994201;28;20181;-90
2022/12/15 03:48:47;;;;;;;31.30;19.17;;;-5.50;89.30;;;;;;4994089;28;20184;-90
2022/12/15 03:51:12;;;;;;;29.63;19.30;;;-5.50;89.30;;;;;;4995382;28;20208;-90
2022/12/15 03:53:38;;;;;;;33.90;19.53;;;-5.40;89.40;;;;;;4993943;28;20201;-91
2022/12/15 03:56:04;;;;;;;30.87;20.47;;;-5.40;89.50;;;;;;4993660;28;20222;-90
2022/12/15 03:58:29;;;;;;;34.10;16.80;;;-5.40;89.50;;;;;;4995160;28;20268;-90
2022/12/15 04:00:55;;;;;;;38.13;22.00;;;-5.30;89.70;;;;;;4993850;28;20269;-90
2022/12/15 04:03:20;;;;;;;34.33;21.17;;;-5.30;89.70;;;;;;4993895;28;20190;-90
2022/12/15 04:05:46;;;;;;;36.13;21.70;;;-5.40;89.60;;;;;;4995074;28;20174;-90
2022/12/15 04:08:12;;;;;;;35.20;20.37;;;-5.30;89.70;;;;;;4993847;28;20185;-90
2022/12/15 04:10:37;;;;;;;35.63;21.13;;;-5.30;89.50;;;;;;4993744;28;20193;-90
2022/12/15 04:13:08;;;;;;;36.20;20.80;;;-5.30;89.50;;;;;;4993692;28;20237;-90
2022/12/15 04:15:36;;;;;;;28.83;19.90;;;-5.40;89.40;;;;;;4994906;28;20185;-90
2022/12/15 04:18:03;;;;;;;37.33;20.83;;;-5.50;89.30;;;;;;4994797;28;20260;-91
2022/12/15 04:20:29;;;;;;;35.73;20.77;;;-5.60;89.30;;;;;;4993678;28;20182;-90
2022/12/15 04:22:55;;;;;;;33.73;21.33;;;-5.60;89.40;;;;;;4993352;28;20782;-90
2022/12/15 05:34:11;;;;;;;31.87;19.93;;;-5.60;90.00;;;;;;4993827;28;20205;-91
2022/12/15 05:36:36;;;;;;;35.63;20.23;;;-5.60;90.00;;;;;;4992448;28;20185;-91
2022/12/15 05:39:02;;;;;;;37.47;19.70;;;-5.60;90.00;;;;;;4993669;28;20198;-90
2022/12/15 05:41:28;;;;;;;33.17;19.60;;;-5.60;90.10;;;;;;4993625;28;20271;-90
2022/12/15 05:43:53;;;;;;;38.23;19.83;;;-5.60;90.30;;;;;;5008788;28;20193;-90
2022/12/15 05:46:19;;;;;;;37.67;19.40;;;-5.40;90.60;;;;;;4992690;28;20664;-91
2022/12/15 05:48:45;;;;;;;36.07;21.33;;;-5.30;90.70;;;;;;4992353;28;20623;-90
2022/12/15 05:51:12;;;;;;;33.23;19.73;;;-5.40;90.60;;;;;;4992302;28;20675;-90
2022/12/15 05:53:39;;;;;;;33.47;21.17;;;-5.50;90.60;;;;;;4992196;28;20197;-90
2022/12/15 05:56:07;;;;;;;32.40;19.63;;;-5.50;90.50;;;;;;4993741;28;20239;-90
2022/12/15 05:58:33;;;;;;;35.63;19.20;;;-5.60;90.50;;;;;;4992126;28;20205;-90
2022/12/15 06:01:10;;;;;;;36.47;20.23;;;-5.60;90.40;;;;;;4993543;28;20170;-91
2022/12/15 06:03:37;;;;;;;29.37;18.17;;;-5.70;90.40;;;;;;4993488;28;20217;-91
2022/12/15 06:06:04;;;;;;;31.80;18.77;;;-5.70;90.30;;;;;;4992176;28;20216;-90
2022/12/15 06:08:31;;;;;;;27.70;18.10;;;-5.80;90.20;;;;;;5008566;28;20267;-90
2022/12/15 06:10:57;;;;;;;33.43;19.47;;;-5.80;90.30;;;;;;4992155;28;20179;-90
2022/12/15 06:13:24;;;;;;;34.20;19.17;;;-5.70;90.30;;;;;;4993606;28;20206;-90
2022/12/15 06:16:15;;;;;;;29.93;17.77;;;-5.60;90.60;;;;;;4992526;28;20286;-90
2022/12/15 06:18:44;;;;;;;32.90;19.47;;;-5.50;90.70;;;;;;4993214;28;20264;-90
2022/12/15 06:21:12;;;;;;;32.73;19.40;;;-5.50;90.80;;;;;;4995971;28;20178;-90
2022/12/15 06:23:39;;;;;;;31.27;19.57;;;-5.60;90.80;;;;;;4997090;28;20658;-90
2022/12/15 06:26:08;;;;;;;35.23;21.20;;;-5.60;90.80;;;;;;4995614;28;20178;-90
2022/12/15 06:28:33;;;;;;;32.40;20.17;;;-5.60;90.90;;;;;;5012073;28;20273;-90
2022/12/15 06:31:02;;;;;;;35.90;21.10;;;-5.50;91.00;;;;;;4995712;28;20206;-91
2022/12/15 06:33:28;;;;;;;31.23;19.13;;;-5.50;91.00;;;;;;4995598;28;20202;-90
2022/12/15 06:35:54;;;;;;;31.20;19.57;;;-5.50;90.90;;;;;;4995649;28;20177;-90
2022/12/15 06:38:20;;;;;;;40.23;21.90;;;-5.50;90.90;;;;;;4995437;28;20193;-91
2022/12/15 06:40:53;;;;;;;30.17;19.77;;;-5.50;91.00;;;;;;4995543;28;20184;-91
2022/12/15 06:43:18;;;;;;;32.20;20.43;;;-5.40;91.00;;;;;;4995332;28;20198;-90
2022/12/15 06:45:48;;;;;;;30.33;20.53;;;-5.40;91.00;;;;;;4995529;28;20184;-90
2022/12/15 06:48:14;;;;;;;30.47;19.57;;;-5.40;90.90;;;;;;4996606;28;20257;-90
2022/12/15 06:50:40;;;;;;;33.10;20.03;;;-5.50;90.90;;;;;;4996456;28;20220;-91
2022/12/15 06:53:06;;;;;;;32.17;19.73;;;-5.40;90.90;;;;;;4996662;28;20201;-90
2022/12/15 06:55:31;;;;;;;31.00;18.63;;;-5.40;90.90;;;;;;4995265;28;20545;-90
2022/12/15 06:57:57;;;;;;;30.63;18.00;;;-5.20;91.10;;;;;;4996364;28;20217;-90
2022/12/15 07:00:22;;;;;;;33.67;19.03;;;-4.70;91.50;;;;;;4995198;28;20192;-90
2022/12/15 07:02:48;;;;;;;28.03;17.93;;;-4.50;91.80;;;;;;4994985;28;20209;-90
2022/12/15 07:05:13;;;;;;;31.73;19.97;;;-4.30;91.80;;;;;;4995277;28;20547;-90
2022/12/15 07:07:39;;;;;;;34.50;19.40;;;-4.30;91.90;;;;;;4994939;28;20193;-90
2022/12/15 07:10:05;;;;;;;32.40;19.90;;;-4.30;91.90;;;;;;4996158;28;20189;-90
2022/12/15 07:12:30;;;;;;;32.23;19.20;;;-4.50;91.70;;;;;;4994826;28;20174;-90
2022/12/15 07:14:56;;;;;;;32.27;19.03;;;-4.50;91.80;;;;;;4996023;28;20290;-90
2022/12/15 07:17:23;;;;;;;33.83;20.53;;;-4.50;91.80;;;;;;4994869;28;20204;-91
2022/12/15 07:19:48;;;;;;;34.00;20.47;;;-4.40;91.90;;;;;;4995445;28;20178;-90
2022/12/15 07:22:14;;;;;;;33.03;19.13;;;-4.40;91.90;;;;;;4995561;28;20533;-90
2022/12/15 07:24:39;;;;;;;29.10;21.40;;;-4.40;91.90;;;;;;4994714;28;20260;-91
2022/12/15 07:27:05;;;;;;;31.37;20.80;;;-4.40;91.80;;;;;;4994617;28;20182;-91
2022/12/15 07:29:31;;;;;;;33.70;20.47;;;-4.50;91.80;;;;;;4994608;28;20205;-91
2022/12/15 07:31:57;;;;;;;37.90;21.43;;;-4.50;91.90;;;;;;4995116;28;20598;-90
2022/12/15 07:34:22;;;;;;;37.30;20.83;;;-4.50;91.80;;;;;;4994726;28;20688;-91
2022/12/15 07:36:48;;;;;;;33.40;21.27;;;-4.50;91.90;;;;;;4994476;28;20224;-90
2022/12/15 07:39:14;;;;;;;35.83;21.20;;;-4.50;91.90;;;;;;4994367;28;20209;-91
2022/12/15 07:41:40;;;;;;;37.13;19.80;;;-4.40;91.90;;;;;;4994454;28;20178;-91
2022/12/15 07:44:06;;;;;;;29.60;19.77;;;-4.30;92.00;;;;;;4994313;28;20612;-91
2022/12/15 07:46:32;;;;;;;31.93;21.90;;;-4.20;92.00;;;;;;4995462;28;20575;-91
2022/12/15 07:48:57;;;;;;;34.83;19.40;;;-4.30;91.90;;;;;;4994218;28;20236;-91
2022/12/15 07:51:23;;;;;;;32.30;20.13;;;-4.40;91.80;;;;;;4995415;28;20190;-91
2022/12/15 07:53:49;;;;;;;34.33;20.60;;;-4.30;91.90;;;;;;4995516;28;20541;-90
2022/12/15 07:56:16;;;;;;;31.60;20.03;;;-4.30;91.90;;;;;;4995261;28;20672;-91
2022/12/15 07:58:41;;;;;;;33.63;20.63;;;-4.30;91.90;;;;;;4993980;28;20210;-91
2022/12/15 08:01:11;;;;;;;35.27;21.17;;;-4.30;92.10;;;;;;4994206;28;20767;-91
2022/12/15 08:03:37;;;;;;;38.10;22.13;;;-4.30;92.10;;;;;;4994092;28;20197;-91
2022/12/15 08:06:04;;;;;;;36.30;21.30;;;-4.30;92.00;;;;;;4993928;28;20174;-91
2022/12/15 08:08:30;;;;;;;33.73;21.07;;;-4.20;92.10;;;;;;4994931;28;20170;-91
2022/12/15 08:10:56;;;;;;;34.03;21.67;;;-4.20;92.10;;;;;;4994087;28;20185;-90
2022/12/15 08:13:21;;;;;;;39.77;21.53;;;-4.20;92.10;;;;;;4993646;28;20284;-91
2022/12/15 08:15:51;;;;;;;31.40;19.80;;;-4.20;92.10;;;;;;4994192;28;20201;-91
2022/12/15 08:18:16;;;;;;;36.23;22.07;;;-4.10;92.20;;;;;;4993636;28;20244;-90
2022/12/15 08:20:42;;;;;;;36.63;21.30;;;-4.00;92.20;;;;;;4993613;28;20202;-91
2022/12/15 08:23:07;;;;;;;36.70;20.93;;;-4.00;92.30;;;;;;4993415;28;20222;-90
2022/12/15 08:25:33;;;;;;;34.73;20.23;;;-3.90;92.30;;;;;;4995183;28;20169;-91
2022/12/15 08:27:59;;;;;;;37.53;21.43;;;-3.90;92.30;;;;;;5010897;28;20185;-92
2022/12/15 08:30:25;;;;;;;34.13;20.17;;;-3.80;92.40;;;;;;4993416;28;20264;-91
2022/12/15 08:32:50;;;;;;;34.37;21.67;;;-3.80;92.40;;;;;;4994257;28;20280;-91
2022/12/15 08:35:16;;;;;;;34.87;20.17;;;-3.70;92.40;;;;;;4993713;28;20185;-89
2022/12/15 08:37:41;;;;;;;38.73;22.63;;;-3.60;92.50;;;;;;4994693;28;20207;-91
2022/12/15 08:40:07;;;;;;;30.80;20.97;;;-3.60;92.50;;;;;;4993597;28;20181;-89
2022/12/15 08:42:37;;;;;;;33.27;20.20;;;-3.50;92.50;;;;;;4994455;28;20174;-91
2022/12/15 08:45:03;;;;;;;30.13;20.03;;;-3.40;92.60;;;;;;5009605;28;20185;-91
2022/12/15 08:47:29;;;;;;;29.30;20.20;;;-3.40;92.60;;;;;;4994343;28;20212;-91
2022/12/15 08:49:55;;;;;;;32.37;21.37;;;-3.30;92.60;;;;;;4993180;28;20194;-91
2022/12/15 08:52:22;;;;;;;21.17;15.00;;;-3.30;92.70;;;;;;4993137;28;20555;-91
2022/12/15 08:54:50;;;;;;;30.23;16.47;;;-3.20;92.70;;;;;;4993092;28;20186;-92
2022/12/15 08:57:16;;;;;;;30.43;14.30;;;-3.10;92.80;;;;;;4993031;28;20181;-90
2022/12/15 08:59:41;;;;;;;29.60;18.43;;;-3.00;92.80;;;;;;4993196;28;20182;-91
2022/12/15 09:02:10;;;;;;;17.10;11.73;;;-2.90;92.90;;;;;;4992972;28;20181;-90
2022/12/15 09:04:36;;;;;;;23.00;15.30;;;-2.70;92.90;;;;;;4994044;28;20199;-90
2022/12/15 09:07:02;;;;;;;24.00;15.53;;;-2.70;92.80;;;;;;4994121;28;20201;-91
2022/12/15 09:09:28;;;;;;;16.40;12.47;;;-2.70;92.70;;;;;;4992840;28;20196;-91
2022/12/15 09:11:54;;;;;;;25.60;16.03;;;-2.60;92.60;;;;;;4993524;28;20185;-91
2022/12/15 09:14:19;;;;;;;19.97;13.63;;;-2.60;92.60;;;;;;4992745;28;20212;-90
2022/12/15 09:16:45;;;;;;;15.97;11.33;;;-2.60;92.40;;;;;;4993023;28;20194;-91
2022/12/15 09:19:11;;;;;;;16.50;11.23;;;-2.50;92.40;;;;;;4993406;28;20556;-88
2022/12/15 09:21:38;;;;;;;18.20;12.97;;;-2.50;92.30;;;;;;4994401;28;20654;-91
2022/12/15 09:24:04;;;;;;;22.07;13.80;;;-2.30;92.50;;;;;;4993177;28;20220;-91
2022/12/15 09:26:33;;;;;;;30.67;17.80;;;-2.30;92.30;;;;;;4993244;28;20171;-91
2022/12/15 09:28:59;;;;;;;14.23;10.90;;;-2.30;92.40;;;;;;4992656;28;20194;-89
2022/12/15 09:31:28;;;;;;;19.50;10.80;;;-2.20;92.40;;;;;;4992823;28;20185;-91
2022/12/15 09:33:56;;;;;;;17.50;10.57;;;-2.10;92.50;;;;;;4992910;28;20221;-90
2022/12/15 09:36:22;;;;;;;28.10;12.97;;;-2.10;92.60;;;;;;4993454;28;20203;-90
2022/12/15 09:38:49;;;;;;;19.60;14.37;;;-2.00;92.70;;;;;;4993673;28;20230;-90
2022/12/15 09:41:19;;;;;;;29.30;18.37;;;-2.00;92.90;;;;;;4992562;28;20245;-90
2022/12/15 09:43:57;;;;;;;26.37;15.73;;;-1.90;93.00;;;;;;4992511;28;20238;-91
2022/12/15 09:46:50;;;;;;;30.53;19.07;;;-1.90;93.20;;;;;;4992554;28;20172;-91
2022/12/15 09:49:53;;;;;;;30.07;17.07;;;-1.90;93.40;;;;;;4992927;28;20175;-92
2022/12/15 09:52:20;;;;;;;37.23;22.07;;;-1.80;93.50;;;;;;5009148;28;20720;-91
2022/12/15 09:54:46;;;;;;;38.23;20.43;;;-1.70;93.70;;;;;;5013675;28;20194;-91
2022/12/15 09:57:32;;;;;;;33.30;21.90;;;-1.60;93.70;;;;;;4996432;28;20608;-92
2022/12/15 09:59:58;;;;;;;27.17;18.77;;;-1.50;93.80;;;;;;5012862;28;20268;-91
2022/12/15 10:02:59;;;;;;;31.23;19.37;;;-1.60;93.90;;;;;;5014291;28;20209;-92
2022/12/15 10:06:03;;;;;;;30.77;20.10;;;-1.50;93.90;;;;;;5000421;28;20170;-93
2022/12/15 10:11:50;;;;;;;26.13;16.10;;;-1.50;94.00;;;;;;5217503;23;20239;-90
2022/12/15 10:14:42;;;;;;;29.60;17.97;;;-1.40;94.10;;;;;;5016866;28;20614;-92
2022/12/15 10:17:48;;;;;;;30.40;17.93;;;-1.30;94.10;;;;;;5015553;28;20581;-91
2022/12/15 10:20:27;;;;;;;31.67;19.73;;;-1.30;94.10;;;;;;4975963;28;20180;-91
2022/12/15 10:22:55;;;;;;;37.07;22.90;;;-1.20;94.00;;;;;;5011208;28;20201;-91
2022/12/15 10:25:30;;;;;;;21.70;15.73;;;-1.10;94.00;;;;;;5015841;28;20543;-92
2022/12/15 10:28:14;;;;;;;36.10;20.70;;;-1.10;94.00;;;;;;5015583;28;20196;-92
2022/12/15 10:31:03;;;;;;;26.63;17.53;;;-1.20;93.90;;;;;;5015702;28;20223;-89
2022/12/15 10:33:40;;;;;;;23.40;15.50;;;-1.20;93.70;;;;;;5015698;28;20197;-91
2022/12/15 10:36:11;;;;;;;30.83;19.03;;;-1.10;93.70;;;;;;5015616;28;20169;-91
2022/12/15 10:38:41;;;;;;;27.00;16.70;;;-1.20;93.50;;;;;;5015057;28;20262;-91
2022/12/15 10:41:11;;;;;;;28.53;17.73;;;-1.20;93.40;;;;;;5015114;28;20177;-92
2022/12/15 10:43:39;;;;;;;25.20;17.90;;;-1.30;93.30;;;;;;5015413;28;20196;-90
2022/12/15 10:46:07;;;;;;;31.33;17.17;;;-1.30;93.10;;;;;;5015329;28;20184;-91
2022/12/15 10:48:33;;;;;;;22.17;15.83;;;-1.30;92.90;;;;;;5015162;28;20576;-91
2022/12/15 10:51:19;;;;;;;23.33;16.73;;;-1.40;92.70;;;;;;5015167;28;20315;-91
2022/12/15 10:53:48;;;;;;;25.00;15.67;;;-1.20;92.60;;;;;;5014963;28;20227;-91
2022/12/15 10:56:33;;;;;;;37.70;20.20;;;-1.10;92.50;;;;;;5014828;28;20173;-90
2022/12/15 10:59:03;;;;;;;32.50;17.50;;;-1.10;92.20;;;;;;5015766;28;20201;-92
2022/12/15 11:01:32;;;;;;;30.43;20.07;;;-1.00;92.10;;;;;;5014881;28;20600;-91
2022/12/15 11:03:58;;;;;;;24.10;15.50;;;-0.90;92.00;;;;;;5014891;28;20679;-91
2022/12/15 11:06:25;;;;;;;30.33;17.63;;;-0.70;91.90;;;;;;5013467;28;20314;-92
2022/12/15 11:08:55;;;;;;;29.60;18.17;;;-0.40;91.80;;;;;;5014820;28;20315;-92
2022/12/15 11:14:45;;;;;;;32.73;20.70;;;-0.10;91.20;;;;;;5016199;28;20197;-89
2022/12/15 11:17:15;;;;;;;25.87;20.33;;;0.00;91.00;;;;;;5015010;28;20194;-91
2022/12/15 11:19:57;;;;;;;32.03;21.70;;;0.20;90.60;;;;;;5015429;28;20162;-91
2022/12/15 11:22:50;;;;;;;32.13;21.03;;;0.20;90.40;;;;;;5016044;28;20571;-92
2022/12/15 11:25:31;;;;;;;33.77;20.90;;;0.10;90.20;;;;;;5014549;28;20170;-92
2022/12/15 11:28:01;;;;;;;25.23;18.90;;;0.10;90.20;;;;;;5014546;28;20165;-91
2022/12/15 11:30:55;;;;;;;25.33;17.10;;;0.10;90.00;;;;;;5014544;28;20722;-91
2022/12/15 11:33:23;;;;;;;31.40;18.27;;;0.10;89.90;;;;;;4987898;28;20233;-93
2022/12/15 11:36:25;;;;;;;28.73;17.47;;;0.10;89.80;;;;;;5014788;28;20235;-91
2022/12/15 12:47:48;;;;;;;;;;;;;;;;;;;;;
2022/12/15 12:50:35;;;;;;;17.87;11.97;;;0.70;88.00;;;;;;5039570;28;20167;-94
2022/12/15 12:53:33;;;;;;;18.90;12.80;;;0.70;88.10;;;;;;5038526;28;20173;-93
2022/12/15 13:12:58;;;;;;;16.63;12.27;;;0.80;88.40;;;;;;5133753;23;20203;-94
2022/12/15 13:16:25;;;;;;;19.10;13.83;;;0.80;88.10;;;;;;5482639;23;20223;-94
2022/12/15 13:19:31;;;;;;;20.90;13.87;;;0.90;88.20;;;;;;4998852;28;21443;-92
2022/12/15 13:22:09;;;;;;;22.57;13.87;;;0.80;88.20;;;;;;5130760;22;20208;-91
2022/12/15 13:32:55;;;;;;;20.40;12.83;;;0.80;88.40;;;;;;5071064;23;20218;-92
2022/12/15 15:57:29;;;;;;;20.50;12.67;;;1.00;87.20;;;;;;5032486;28;20204;-90
2022/12/15 15:59:56;;;;;;;17.47;12.67;;;1.00;87.10;;;;;;5019785;28;20437;-89
2022/12/15 16:02:21;;;;;;;19.07;13.27;;;1.00;87.20;;;;;;5019008;28;20183;-89
2022/12/15 16:04:47;;;;;;;19.03;13.37;;;1.00;87.30;;;;;;5003442;28;20197;-93
2022/12/15 16:07:20;;;;;;;18.10;12.50;;;1.00;87.30;;;;;;5001008;28;20545;-92
2022/12/15 16:09:45;;;;;;;22.77;13.60;;;1.00;87.10;;;;;;5000199;28;20185;-93
2022/12/15 16:12:38;;;;;;;24.30;14.07;;;1.00;87.00;;;;;;4998993;28;20242;-90
2022/12/15 16:15:14;;;;;;;17.27;13.90;;;1.00;86.80;;;;;;4998101;28;20211;-90
2022/12/15 16:17:40;;;;;;;22.77;13.60;;;0.90;86.90;;;;;;4998152;28;20188;-90
2022/12/15 16:20:07;;;;;;;20.43;12.93;;;0.90;86.90;;;;;;4999622;28;20193;-89
2022/12/15 16:22:33;;;;;;;23.30;13.77;;;0.90;87.00;;;;;;4997816;28;20729;-90
2022/12/15 16:24:58;;;;;;;19.73;14.83;;;0.80;86.90;;;;;;4998314;28;20267;-90
2022/12/15 16:27:24;;;;;;;18.33;14.13;;;0.80;87.00;;;;;;4997471;28;20188;-89
2022/12/15 16:29:49;;;;;;;22.20;13.43;;;0.70;87.30;;;;;;4997049;28;20181;-90
2022/12/15 16:32:15;;;;;;;22.20;14.33;;;0.70;87.30;;;;;;4997303;28;20189;-90
2022/12/15 16:34:41;;;;;;;21.77;14.33;;;0.60;87.40;;;;;;4996937;28;20207;-90
2022/12/15 16:37:23;;;;;;;23.23;14.47;;;0.60;87.20;;;;;;4996693;28;20178;-89
2022/12/15 16:39:49;;;;;;;19.43;12.90;;;0.60;87.30;;;;;;4996774;28;20209;-89
2022/12/15 16:42:15;;;;;;;23.23;15.73;;;0.50;87.40;;;;;;4996912;28;20175;-89
2022/12/15 16:44:40;;;;;;;18.50;12.37;;;0.60;87.50;;;;;;4996775;28;20190;-90
2022/12/15 16:47:06;;;;;;;29.43;14.97;;;0.50;87.40;;;;;;4996637;28;20232;-90
2022/12/15 16:49:31;;;;;;;25.67;16.83;;;0.40;87.40;;;;;;4997186;28;20621;-91
2022/12/15 16:51:57;;;;;;;22.80;14.97;;;0.40;87.40;;;;;;4996695;28;20193;-91
2022/12/15 16:54:29;;;;;;;30.20;18.97;;;0.30;87.50;;;;;;4996927;28;20209;-90
2022/12/15 16:56:56;;;;;;;24.13;16.90;;;0.40;87.60;;;;;;4997088;28;20193;-91
2022/12/15 16:59:25;;;;;;;20.63;14.70;;;0.30;87.70;;;;;;4996339;28;20243;-90
2022/12/15 17:01:52;;;;;;;24.33;16.13;;;0.30;87.60;;;;;;4996481;28;20177;-90
2022/12/15 17:04:18;;;;;;;23.10;16.20;;;0.30;87.90;;;;;;4995466;28;20205;-91
2022/12/15 17:06:44;;;;;;;23.40;15.73;;;0.30;87.80;;;;;;4996721;28;20523;-91
2022/12/15 17:09:17;;;;;;;22.77;16.63;;;0.30;87.80;;;;;;4996862;28;20653;-91
2022/12/15 17:11:43;;;;;;;26.50;17.87;;;0.30;87.80;;;;;;4996496;28;20180;-91
2022/12/15 17:14:09;;;;;;;22.60;16.63;;;0.30;87.70;;;;;;4996413;28;20542;-91
2022/12/15 17:16:35;;;;;;;24.17;16.57;;;0.30;87.60;;;;;;4996296;28;20186;-91
2022/12/15 17:19:00;;;;;;;22.50;17.07;;;0.30;87.60;;;;;;4996773;28;20295;-91
2022/12/15 17:21:29;;;;;;;18.57;14.60;;;0.30;87.60;;;;;;4996452;28;20635;-89
2022/12/15 17:23:57;;;;;;;23.63;16.60;;;0.30;87.50;;;;;;4995994;28;20205;-89
2022/12/15 17:26:26;;;;;;;25.23;18.23;;;0.20;87.70;;;;;;4996336;28;20646;-89
2022/12/15 17:28:52;;;;;;;26.10;16.57;;;0.20;87.90;;;;;;4996794;28;20174;-89
2022/12/15 17:31:22;;;;;;;24.67;17.30;;;0.20;88.00;;;;;;4995987;28;20218;-89
2022/12/15 17:33:47;;;;;;;26.77;18.07;;;0.30;88.00;;;;;;4995865;28;20203;-89
2022/12/15 17:36:23;;;;;;;22.60;17.27;;;0.30;88.10;;;;;;4996047;28;20187;-89
2022/12/15 17:38:59;;;;;;;21.93;17.47;;;0.40;88.20;;;;;;4995938;28;20200;-90
2022/12/15 17:41:26;;;;;;;28.00;18.07;;;0.60;88.30;;;;;;4995872;28;20207;-89
2022/12/15 17:43:52;;;;;;;24.93;17.47;;;0.60;88.10;;;;;;4996113;28;20685;-90
2022/12/15 17:46:18;;;;;;;24.40;18.47;;;0.80;88.10;;;;;;4995877;28;20184;-90
2022/12/15 17:48:44;;;;;;;24.27;17.47;;;0.90;88.00;;;;;;4995955;28;20184;-90
2022/12/15 17:51:17;;;;;;;22.67;17.27;;;0.90;87.60;;;;;;4995878;28;20178;-90
2022/12/15 17:53:45;;;;;;;27.60;16.30;;;0.90;87.30;;;;;;4995716;28;20201;-89
2022/12/15 17:56:13;;;;;;;25.03;16.83;;;0.80;87.10;;;;;;4995955;28;20203;-91
2022/12/15 17:58:39;;;;;;;24.10;17.10;;;0.90;87.10;;;;;;4996971;28;20208;-90
2022/12/15 18:01:05;;;;;;;29.60;18.90;;;0.90;86.90;;;;;;4995925;28;20554;-88
2022/12/15 18:03:31;;;;;;;23.23;16.73;;;0.90;87.00;;;;;;4996480;28;20201;-91
2022/12/15 18:05:57;;;;;;;26.13;18.43;;;1.00;86.80;;;;;;4996827;28;20264;-92
2022/12/15 18:08:27;;;;;;;27.83;20.10;;;0.90;86.40;;;;;;4997774;28;20216;-91
2022/12/15 18:10:56;;;;;;;25.63;20.87;;;0.80;86.20;;;;;;4996464;28;20199;-91
2022/12/15 18:13:27;;;;;;;22.93;19.00;;;0.70;86.40;;;;;;4996220;28;20201;-91
2022/12/15 18:15:54;;;;;;;28.33;19.33;;;0.50;86.20;;;;;;4999517;28;20191;-91
2022/12/15 18:18:21;;;;;;;30.63;19.73;;;0.50;86.50;;;;;;4999640;28;20670;-91
2022/12/15 18:20:48;;;;;;;28.13;19.90;;;0.50;86.90;;;;;;4999902;28;20187;-91
2022/12/15 18:23:19;;;;;;;25.77;19.97;;;0.50;87.00;;;;;;4999756;28;20294;-91
2022/12/15 18:25:45;;;;;;;26.77;19.33;;;0.60;87.00;;;;;;5000287;28;20172;-91
2022/12/15 18:28:24;;;;;;;24.63;19.20;;;0.50;86.90;;;;;;4999495;28;20184;-91
2022/12/15 18:31:01;;;;;;;22.83;19.13;;;0.30;87.20;;;;;;5000159;28;20260;-91
2022/12/15 18:33:29;;;;;;;27.83;20.67;;;0.30;87.50;;;;;;4999512;28;20243;-90
2022/12/15 18:35:55;;;;;;;29.60;20.27;;;0.20;87.60;;;;;;4999502;28;20216;-91
2022/12/15 18:38:26;;;;;;;27.43;20.03;;;0.20;87.80;;;;;;4999963;28;20247;-91
2022/12/15 18:40:55;;;;;;;28.67;19.67;;;0.20;88.10;;;;;;4999338;28;20172;-91
2022/12/15 18:43:24;;;;;;;26.97;20.37;;;0.10;88.20;;;;;;4999308;28;20197;-91
2022/12/15 18:45:50;;;;;;;25.60;18.53;;;0.10;88.40;;;;;;4999319;28;20180;-89
2022/12/15 18:48:20;;;;;;;32.00;21.40;;;0.00;88.60;;;;;;4998861;28;20180;-90
2022/12/15 18:50:48;;;;;;;35.43;20.00;;;0.00;88.80;;;;;;4999568;28;20220;-90
2022/12/15 18:53:18;;;;;;;25.00;18.70;;;0.00;88.90;;;;;;4998900;28;20686;-90
2022/12/15 18:55:45;;;;;;;30.87;20.27;;;0.00;89.00;;;;;;4999267;28;20200;-89
2022/12/15 18:58:24;;;;;;;32.07;19.77;;;0.00;89.10;;;;;;5016324;28;20199;-89
2022/12/15 19:00:50;;;;;;;30.87;19.47;;;0.00;89.20;;;;;;5016836;28;20162;-89
2022/12/15 19:03:16;;;;;;;29.50;20.07;;;0.00;89.20;;;;;;4998985;28;20192;-90
2022/12/15 19:05:42;;;;;;;32.10;22.70;;;0.00;89.30;;;;;;4998973;28;20230;-89
2022/12/15 19:08:09;;;;;;;30.93;20.77;;;0.20;89.30;;;;;;4999369;28;20257;-91